Time;durP1;ratioP1;P1;durP2;ratioP2;P2;SDS_P1;SDS_P2;PMS_P1;PMS_P2;Temp;Humidity;BMP_temperature;BMP_pressure;BME280_temperature;BME280_humidity;BME280_pressure;Samples;Min_cycle;Max_cycle;Signal;HPM_P1;HPM_P2
2022/04/08 00:00:53;;;;;;;3.80;2.00;;;;;;;10.22;64.92;97315.61;128376;1287;98128;-79
2022/04/08 00:03:56;;;;;;;2.80;1.60;;;;;;;10.21;64.78;97319.80;128308;1287;108858;-80
2022/04/08 00:06:59;;;;;;;2.60;1.80;;;;;;;10.18;65.04;97322.02;128349;1287;108777;-79
2022/04/08 00:10:02;;;;;;;4.60;1.70;;;;;;;10.15;65.16;97317.83;128326;1287;99228;-79
2022/04/08 00:13:06;;;;;;;3.20;1.40;;;;;;;10.10;65.16;97310.86;128421;1287;108752;-78
2022/04/08 00:16:09;;;;;;;2.90;1.40;;;;;;;10.08;65.12;97304.83;128372;1287;108816;-79
2022/04/08 00:19:12;;;;;;;2.40;1.50;;;;;;;10.10;65.34;97288.79;128330;1287;108654;-78
2022/04/08 00:22:14;;;;;;;2.10;1.40;;;;;;;10.14;65.20;97286.20;128248;1287;191472;-79
2022/04/08 00:25:17;;;;;;;3.90;1.80;;;;;;;10.19;65.58;97277.64;128447;1287;99213;-76
2022/04/08 00:28:20;;;;;;;2.70;1.40;;;;;;;10.21;65.49;97276.84;128431;1287;99188;-77
2022/04/08 00:31:23;;;;;;;2.60;1.40;;;;;;;10.19;65.22;97275.58;128461;1287;98096;-77
2022/04/08 00:34:27;;;;;;;2.80;1.30;;;;;;;10.16;64.90;97277.52;128245;1287;98105;-76
2022/04/08 00:37:30;;;;;;;1.80;1.30;;;;;;;10.13;64.65;97277.44;128421;1287;108818;-76
2022/04/08 00:40:34;;;;;;;3.70;1.20;;;;;;;10.11;64.55;97282.88;128356;1287;99207;-77
2022/04/08 00:43:39;;;;;;;2.70;1.30;;;;;;;10.07;64.34;97302.66;128305;1287;108726;-77
2022/04/08 00:46:43;;;;;;;2.30;1.40;;;;;;;9.99;63.98;97314.39;128252;1287;108659;-75
2022/04/08 00:49:45;;;;;;;2.90;1.00;;;;;;;9.89;63.60;97320.86;128224;1287;108816;-75
2022/04/08 00:52:49;;;;;;;2.60;1.20;;;;;;;9.79;63.34;97318.12;128276;1287;98569;-76
2022/04/08 00:55:52;;;;;;;2.30;1.60;;;;;;;9.73;63.49;97327.73;128277;1286;108792;-75
2022/04/08 00:58:57;;;;;;;3.30;1.50;;;;;;;9.67;63.02;97337.52;128510;1287;108623;-77
2022/04/08 01:01:59;;;;;;;2.70;1.30;;;;;;;9.58;62.60;97335.27;128479;1287;108856;-77
2022/04/08 01:05:03;;;;;;;4.50;1.80;;;;;;;9.50;62.65;97341.13;128323;1287;98124;-78
2022/04/08 01:08:11;;;;;;;3.40;1.00;;;;;;;9.46;62.25;97341.23;128290;1287;108996;-78
2022/04/08 01:11:14;;;;;;;2.60;1.10;;;;;;;9.40;61.84;97344.56;128269;1287;109107;-79
2022/04/08 01:14:17;;;;;;;3.50;1.00;;;;;;;9.35;61.77;97352.63;128241;1287;99212;-78
2022/04/08 01:17:20;;;;;;;2.40;1.00;;;;;;;9.33;61.65;97360.05;128208;1286;98531;-79
2022/04/08 01:20:23;;;;;;;2.30;0.80;;;;;;;9.31;61.81;97368.13;128255;1287;98034;-79
2022/04/08 01:23:27;;;;;;;2.10;0.80;;;;;;;9.30;61.72;97367.57;128222;1287;98122;-78
2022/04/08 01:26:30;;;;;;;2.00;0.90;;;;;;;9.28;61.41;97376.50;128214;1287;108826;-79
2022/04/08 01:29:33;;;;;;;2.90;1.10;;;;;;;9.25;61.66;97377.17;128459;1287;97996;-79
2022/04/08 01:32:36;;;;;;;3.00;1.00;;;;;;;9.24;61.61;97377.05;128408;1287;98782;-80
2022/04/08 01:35:39;;;;;;;2.40;0.80;;;;;;;9.24;61.74;97379.02;128486;1287;99187;-79
2022/04/08 01:38:42;;;;;;;4.70;1.20;;;;;;;9.22;61.64;97368.81;128325;1287;98684;-78
2022/04/08 01:41:44;;;;;;;1.90;1.00;;;;;;;9.22;61.43;97364.39;128415;1287;98062;-77
2022/04/08 01:44:47;;;;;;;3.50;1.00;;;;;;;9.23;61.50;97368.76;128348;1287;98017;-78
2022/04/08 01:47:49;;;;;;;2.20;0.80;;;;;;;9.23;61.54;97370.80;128471;1287;98003;-79
2022/04/08 01:50:52;;;;;;;1.90;0.90;;;;;;;9.21;61.31;97372.17;128321;1287;98027;-78
2022/04/08 01:53:55;;;;;;;3.10;1.40;;;;;;;9.20;61.33;97371.08;128204;1288;98093;-78
2022/04/08 01:56:58;;;;;;;2.30;1.10;;;;;;;9.17;61.16;97375.15;128203;1288;99329;-78
2022/04/08 02:00:02;;;;;;;3.60;1.30;;;;;;;9.13;61.24;97385.23;128375;1288;98475;-78
2022/04/08 02:03:20;;;;;;;1.70;1.00;;;;;;;9.06;61.23;97391.46;128303;1288;99187;-78
2022/04/08 02:06:23;;;;;;;3.60;1.00;;;;;;;8.96;61.00;97396.69;128269;1287;99079;-77
2022/04/08 02:09:25;;;;;;;3.30;1.00;;;;;;;8.86;61.19;97402.53;128249;1287;99082;-77
2022/04/08 02:12:28;;;;;;;3.80;1.20;;;;;;;8.81;61.12;97395.27;128279;1288;98117;-77
2022/04/08 02:15:34;;;;;;;3.20;1.00;;;;;;;8.79;61.14;97401.94;128295;1288;99303;-79
2022/04/08 02:18:36;;;;;;;3.40;1.10;;;;;;;8.78;61.10;97400.80;128412;1288;98026;-77
2022/04/08 02:21:39;;;;;;;3.20;1.00;;;;;;;8.78;61.29;97402.08;128179;1288;98788;-76
2022/04/08 02:24:42;;;;;;;2.80;1.00;;;;;;;8.76;61.34;97408.59;128394;1288;98076;-77
2022/04/08 02:27:45;;;;;;;3.40;1.00;;;;;;;8.76;61.22;97413.55;128465;1288;98044;-77
2022/04/08 02:30:48;;;;;;;2.60;1.20;;;;;;;8.75;61.18;97411.63;128183;1288;99290;-76
2022/04/08 02:33:51;;;;;;;2.60;1.10;;;;;;;8.69;61.13;97417.33;128277;1288;97993;-77
2022/04/08 02:36:53;;;;;;;4.60;1.20;;;;;;;8.66;61.11;97417.06;128244;1287;98781;-77
2022/04/08 02:39:56;;;;;;;3.20;1.20;;;;;;;8.65;61.08;97418.52;128306;1288;98116;-76
2022/04/08 02:42:59;;;;;;;6.50;1.40;;;;;;;8.65;61.12;97419.59;128362;1288;99187;-76
2022/04/08 02:46:02;;;;;;;2.70;1.10;;;;;;;8.64;60.85;97417.69;128288;1288;99201;-76
2022/04/08 02:49:05;;;;;;;5.20;1.30;;;;;;;8.63;61.17;97424.88;128092;1288;98006;-76
2022/04/08 02:52:09;;;;;;;2.70;1.00;;;;;;;8.61;60.89;97432.63;128063;1288;99220;-76
2022/04/08 02:55:12;;;;;;;4.70;1.30;;;;;;;8.59;60.92;97436.75;128325;1288;98467;-75
2022/04/08 02:58:14;;;;;;;4.20;1.20;;;;;;;8.59;60.94;97438.55;128286;1288;99101;-78
2022/04/08 03:01:17;;;;;;;2.70;1.10;;;;;;;8.58;60.84;97438.31;128354;1288;98421;-76
2022/04/08 03:04:20;;;;;;;3.00;0.90;;;;;;;8.57;61.00;97441.05;128473;1288;99175;-77
2022/04/08 03:07:22;;;;;;;3.90;1.00;;;;;;;8.57;60.91;97447.79;128265;1288;98050;-77
2022/04/08 03:10:25;;;;;;;2.70;1.00;;;;;;;8.58;61.12;97448.70;128296;1288;98820;-77
2022/04/08 03:13:28;;;;;;;3.40;1.20;;;;;;;8.60;61.12;97440.63;128387;1288;98035;-77
2022/04/08 03:16:31;;;;;;;3.10;1.50;;;;;;;8.61;61.46;97441.49;128338;1288;98017;-77
2022/04/08 03:19:33;;;;;;;4.40;1.30;;;;;;;8.59;61.31;97446.11;128283;1288;98016;-77
2022/04/08 03:22:36;;;;;;;4.10;1.30;;;;;;;8.57;61.35;97448.86;128376;1289;99854;-77
2022/04/08 03:25:39;;;;;;;5.90;3.20;;;;;;;8.55;61.22;97453.04;128327;1288;98908;-76
2022/04/08 03:28:43;;;;;;;9.10;5.90;;;;;;;8.53;61.31;97456.72;128220;1288;99213;-77
2022/04/08 03:31:45;;;;;;;15.40;7.70;;;;;;;8.51;61.71;97458.28;128112;1288;98000;-77
2022/04/08 03:34:57;;;;;;;15.30;8.20;;;;;;;8.51;61.53;97458.82;128235;1289;99248;-77
2022/04/08 03:37:59;;;;;;;20.10;10.70;;;;;;;8.54;61.69;97451.40;128360;1290;98003;-77
2022/04/08 03:41:02;;;;;;;28.10;13.60;;;;;;;8.56;61.58;97455.65;128315;1289;101355;-77
2022/04/08 03:44:05;;;;;;;31.70;15.70;;;;;;;8.56;61.48;97464.27;128099;1290;98009;-77
2022/04/08 03:47:08;;;;;;;27.60;12.40;;;;;;;8.56;61.60;97465.91;128296;1288;98138;-77
2022/04/08 03:50:12;;;;;;;31.40;15.30;;;;;;;8.56;61.75;97471.38;128335;1290;98120;-77
2022/04/08 03:53:15;;;;;;;11.30;5.20;;;;;;;8.55;61.77;97469.67;128374;1289;98100;-77
2022/04/08 03:56:18;;;;;;;29.80;13.20;;;;;;;8.54;61.81;97474.30;128087;1291;98131;-77
2022/04/08 03:59:22;;;;;;;13.70;6.20;;;;;;;8.54;61.80;97476.42;128214;1289;98703;-76
2022/04/08 04:02:25;;;;;;;16.10;9.30;;;;;;;8.54;61.75;97487.02;128316;1288;99109;-77
2022/04/08 04:05:27;;;;;;;38.40;17.20;;;;;;;8.55;61.53;97488.39;128373;1288;98039;-77
2022/04/08 04:08:30;;;;;;;99.00;50.50;;;;;;;8.54;61.38;97492.05;128284;1288;98221;-76
2022/04/08 04:11:33;;;;;;;13.30;5.90;;;;;;;8.53;61.27;97494.98;128175;1291;97977;-77
2022/04/08 04:14:36;;;;;;;35.80;15.10;;;;;;;8.53;61.35;97492.54;128351;1288;99188;-77
2022/04/08 04:17:39;;;;;;;30.20;13.50;;;;;;;8.52;60.81;97496.17;128160;1290;98783;-76
2022/04/08 04:20:42;;;;;;;36.10;16.40;;;;;;;8.51;60.55;97501.95;127995;1290;98025;-76
2022/04/08 04:23:44;;;;;;;42.70;18.90;;;;;;;8.53;60.83;97502.91;128241;1287;98874;-76
2022/04/08 04:26:47;;;;;;;10.50;4.60;;;;;;;8.57;60.70;97504.59;128275;1287;98463;-75
2022/04/08 04:29:50;;;;;;;30.70;15.40;;;;;;;8.59;60.70;97509.91;128448;1287;99211;-76
2022/04/08 04:32:53;;;;;;;73.00;36.70;;;;;;;8.61;60.31;97512.14;128290;1287;99172;-76
2022/04/08 04:35:56;;;;;;;21.30;11.70;;;;;;;8.62;60.62;97509.73;128373;1287;98044;-77
2022/04/08 04:38:59;;;;;;;33.90;20.00;;;;;;;8.61;60.38;97515.25;128324;1287;99220;-76
2022/04/08 04:42:02;;;;;;;12.20;5.30;;;;;;;8.60;60.54;97518.81;128426;1287;97998;-76
2022/04/08 04:45:06;;;;;;;13.80;9.00;;;;;;;8.61;60.08;97517.46;128361;1287;99151;-76
2022/04/08 04:48:11;;;;;;;7.10;3.50;;;;;;;8.61;60.01;97525.77;128372;1287;98011;-75
2022/04/08 04:51:16;;;;;;;29.10;12.70;;;;;;;8.63;59.91;97526.74;128562;1287;99094;-78
2022/04/08 04:54:19;;;;;;;22.70;9.90;;;;;;;8.62;59.76;97530.63;128359;1289;99181;-79
2022/04/08 04:57:22;;;;;;;50.40;19.60;;;;;;;8.63;59.70;97532.05;128429;1287;98426;-77
2022/04/08 05:00:25;;;;;;;40.00;17.10;;;;;;;8.62;59.72;97528.06;128231;1288;97979;-79
2022/04/08 05:03:28;;;;;;;30.50;10.00;;;;;;;8.63;59.39;97531.84;128363;1287;98818;-78
2022/04/08 05:06:34;;;;;;;43.10;15.40;;;;;;;8.69;59.24;97540.89;128368;1287;98045;-75
2022/04/08 05:09:39;;;;;;;45.10;16.50;;;;;;;8.75;59.29;97543.08;128443;1287;98423;-75
2022/04/08 05:12:42;;;;;;;496.80;156.30;;;;;;;8.83;59.32;97547.14;128443;1287;98023;-73
2022/04/08 05:15:45;;;;;;;96.00;38.80;;;;;;;8.89;59.33;97548.61;128251;1287;97992;-73
2022/04/08 05:18:48;;;;;;;17.10;6.40;;;;;;;8.96;59.49;97545.89;128369;1287;98030;-75
2022/04/08 05:21:52;;;;;;;6.70;2.90;;;;;;;9.03;59.44;97555.61;128457;1287;99167;-75
2022/04/08 05:24:55;;;;;;;4.10;1.40;;;;;;;9.11;59.39;97553.49;128377;1287;98016;-74
2022/04/08 05:27:57;;;;;;;3.80;1.20;;;;;;;9.13;59.10;97563.47;128358;1286;98004;-75
2022/04/08 05:31:00;;;;;;;61.90;23.60;;;;;;;9.07;58.87;97570.23;128474;1287;99197;-75
2022/04/08 05:34:04;;;;;;;22.50;11.10;;;;;;;9.03;58.81;97574.45;128482;1287;98015;-75
2022/04/08 05:37:07;;;;;;;14.80;7.50;;;;;;;9.02;58.90;97579.63;128594;1287;98910;-75
2022/04/08 05:40:14;;;;;;;38.40;14.80;;;;;;;9.00;58.53;97583.39;128492;1287;98003;-75
2022/04/08 05:43:16;;;;;;;50.60;20.40;;;;;;;9.01;58.67;97590.02;128516;1287;99189;-75
2022/04/08 05:46:19;;;;;;;14.90;6.10;;;;;;;9.06;58.72;97586.70;128406;1287;98788;-75
2022/04/08 05:49:22;;;;;;;50.20;20.40;;;;;;;9.15;58.42;97590.27;128508;1287;99201;-75
2022/04/08 05:52:24;;;;;;;6.60;3.10;;;;;;;9.23;58.33;97592.20;128498;1287;99076;-75
2022/04/08 05:55:27;;;;;;;35.80;16.20;;;;;;;9.21;57.62;97593.08;128467;1287;98012;-75
2022/04/08 05:58:31;;;;;;;31.50;11.90;;;;;;;9.16;57.83;97602.91;128422;1287;98015;-74
2022/04/08 06:01:34;;;;;;;50.40;17.40;;;;;;;9.23;58.17;97602.84;128433;1287;98002;-74
2022/04/08 06:04:37;;;;;;;12.40;3.90;;;;;;;9.29;57.18;97602.71;128505;1287;98997;-74
2022/04/08 06:07:45;;;;;;;7.40;2.60;;;;;;;9.31;57.12;97607.56;128381;1287;98474;-75
2022/04/08 06:10:48;;;;;;;37.00;12.20;;;;;;;9.38;56.84;97618.33;128489;1287;98025;-74
2022/04/08 06:13:51;;;;;;;141.10;43.70;;;;;;;9.52;57.12;97633.17;128519;1287;99214;-75
2022/04/08 06:16:53;;;;;;;78.10;27.60;;;;;;;9.68;56.58;97638.02;128438;1287;99045;-74
2022/04/08 06:19:58;;;;;;;35.70;12.30;;;;;;;9.84;56.52;97656.10;128452;1287;98031;-74
2022/04/08 06:23:01;;;;;;;15.60;4.30;;;;;;;9.86;56.11;97657.89;128371;1287;121417;-74
2022/04/08 06:26:04;;;;;;;24.60;11.00;;;;;;;9.79;56.10;97670.61;128393;1286;99663;-74
2022/04/08 06:29:08;;;;;;;29.70;12.90;;;;;;;9.84;55.56;97664.67;128446;1287;99326;-75
2022/04/08 06:32:11;;;;;;;14.10;6.90;;;;;;;9.99;56.24;97677.61;128468;1287;99329;-75
2022/04/08 06:35:14;;;;;;;17.10;8.80;;;;;;;10.08;55.88;97684.69;128435;1287;98989;-75
2022/04/08 06:38:16;;;;;;;10.70;3.60;;;;;;;10.08;56.09;97692.09;128406;1287;98118;-75
2022/04/08 06:41:19;;;;;;;159.60;43.00;;;;;;;10.06;55.98;97691.35;128425;1287;99146;-75
2022/04/08 06:44:22;;;;;;;20.30;9.60;;;;;;;10.09;56.04;97697.73;128267;1287;98056;-74
2022/04/08 06:47:24;;;;;;;5.60;2.10;;;;;;;10.12;55.51;97703.59;128411;1287;98739;-75
2022/04/08 06:50:29;;;;;;;28.60;12.70;;;;;;;10.14;56.19;97715.38;128408;1287;99184;-75
2022/04/08 06:53:32;;;;;;;35.20;15.50;;;;;;;10.16;55.92;97721.23;128464;1286;98005;-75
2022/04/08 06:56:35;;;;;;;153.40;66.10;;;;;;;10.06;55.76;97726.94;128463;1287;98065;-75
2022/04/08 06:59:39;;;;;;;51.50;22.20;;;;;;;10.05;56.25;97734.52;128505;1287;98025;-74
2022/04/08 07:02:42;;;;;;;34.20;15.70;;;;;;;10.06;55.93;97738.12;128430;1287;98093;-74
2022/04/08 07:05:45;;;;;;;43.50;22.00;;;;;;;10.15;56.15;97741.85;128423;1287;98513;-73
2022/04/08 07:08:47;;;;;;;66.60;24.20;;;;;;;10.19;55.23;97744.13;128422;1287;99230;-74
2022/04/08 07:11:50;;;;;;;140.90;35.10;;;;;;;10.27;55.90;97752.88;128356;1287;98058;-74
2022/04/08 07:14:54;;;;;;;28.30;13.80;;;;;;;10.37;55.70;97750.77;128353;1287;98805;-74
2022/04/08 07:17:56;;;;;;;8.20;4.20;;;;;;;10.44;55.65;97755.00;128397;1287;98035;-74
2022/04/08 07:20:59;;;;;;;10.10;5.90;;;;;;;10.52;55.87;97761.80;128404;1287;98117;-74
2022/04/08 07:24:02;;;;;;;39.80;17.40;;;;;;;10.69;54.69;97766.94;128386;1287;98124;-74
2022/04/08 07:27:05;;;;;;;56.60;25.30;;;;;;;10.72;54.93;97774.67;128383;1287;98025;-74
2022/04/08 07:30:11;;;;;;;71.30;29.00;;;;;;;10.83;54.90;97776.95;128414;1287;99181;-75
2022/04/08 07:33:14;;;;;;;17.70;9.30;;;;;;;10.95;54.83;97783.02;128436;1287;97999;-76
2022/04/08 07:36:16;;;;;;;62.60;30.40;;;;;;;11.01;54.49;97791.92;128437;1287;98005;-75
2022/04/08 07:39:19;;;;;;;41.10;22.90;;;;;;;11.02;54.18;97801.23;128412;1287;98153;-75
2022/04/08 07:42:22;;;;;;;24.70;11.90;;;;;;;11.06;54.50;97815.61;128444;1287;98135;-75
2022/04/08 07:45:29;;;;;;;66.40;29.20;;;;;;;11.06;54.06;97815.45;128403;1287;98363;-76
2022/04/08 07:48:32;;;;;;;45.40;21.90;;;;;;;11.02;53.56;97831.20;128393;1287;98002;-75
2022/04/08 07:51:34;;;;;;;63.90;38.20;;;;;;;10.97;53.91;97830.16;128597;1287;99244;-74
2022/04/08 07:54:37;;;;;;;21.60;11.60;;;;;;;10.90;53.70;97834.98;128574;1287;98021;-75
2022/04/08 07:57:47;;;;;;;48.50;21.70;;;;;;;10.77;53.40;97843.17;128579;1287;98927;-75
2022/04/08 08:00:53;;;;;;;37.90;16.20;;;;;;;10.79;54.19;97847.71;128471;1287;99281;-75
2022/04/08 08:03:56;;;;;;;55.80;23.40;;;;;;;10.99;54.11;97851.46;128391;1287;97998;-76
2022/04/08 08:06:59;;;;;;;174.60;56.70;;;;;;;11.23;53.83;97853.11;128463;1287;98011;-74
2022/04/08 08:10:01;;;;;;;141.40;59.80;;;;;;;11.34;53.55;97852.46;128377;1287;99179;-74
2022/04/08 08:13:05;;;;;;;58.80;31.30;;;;;;;11.45;53.96;97860.34;128345;1287;98305;-73
2022/04/08 08:16:09;;;;;;;11.00;7.40;;;;;;;11.53;53.20;97866.32;128345;1287;98266;-75
2022/04/08 08:19:12;;;;;;;19.10;11.80;;;;;;;11.52;52.98;97873.52;128447;1287;98491;-74
2022/04/08 08:22:15;;;;;;;34.00;19.20;;;;;;;11.35;52.72;97886.33;128500;1287;98028;-74
2022/04/08 08:25:18;;;;;;;7.40;4.50;;;;;;;11.20;53.28;97896.41;128481;1287;99092;-74
2022/04/08 08:28:22;;;;;;;5.00;3.20;;;;;;;11.02;52.68;97893.88;128464;1287;97991;-74
2022/04/08 08:31:24;;;;;;;11.70;9.60;;;;;;;10.94;53.28;97905.71;128362;1287;97992;-74
2022/04/08 08:34:27;;;;;;;18.40;14.60;;;;;;;10.95;53.57;97910.34;128445;1287;99099;-74
2022/04/08 08:37:31;;;;;;;18.50;11.50;;;;;;;10.85;53.12;97920.70;128490;1287;99206;-74
2022/04/08 08:40:34;;;;;;;18.20;10.30;;;;;;;10.78;53.50;97925.58;128489;1287;98701;-75
2022/04/08 08:43:37;;;;;;;10.50;7.90;;;;;;;10.76;53.28;97930.79;128441;1287;99193;-74
2022/04/08 08:46:41;;;;;;;11.70;8.10;;;;;;;10.71;53.54;97939.14;128387;1286;98465;-75
2022/04/08 08:49:48;;;;;;;14.20;9.30;;;;;;;10.73;54.01;97940.28;128337;1287;97980;-75
2022/04/08 08:52:51;;;;;;;12.80;7.10;;;;;;;10.72;54.42;97942.91;128367;1287;98002;-75
2022/04/08 08:55:54;;;;;;;21.00;10.00;;;;;;;10.71;54.39;97954.12;128380;1287;99188;-75
2022/04/08 08:58:57;;;;;;;17.80;9.00;;;;;;;10.65;54.78;97971.48;128414;1287;99184;-75
2022/04/08 09:02:03;;;;;;;56.10;24.90;;;;;;;10.44;55.03;97956.86;128400;1287;98538;-74
2022/04/08 09:05:14;;;;;;;25.00;10.40;;;;;;;10.32;55.31;97959.35;128448;1287;98040;-75
2022/04/08 09:08:17;;;;;;;26.00;9.20;;;;;;;10.48;55.03;97964.77;128477;1287;99186;-75
2022/04/08 09:11:26;;;;;;;22.70;10.20;;;;;;;10.66;54.89;97964.96;128416;1286;99188;-75
2022/04/08 09:14:30;;;;;;;9.50;5.20;;;;;;;10.72;54.08;97961.75;128359;1287;97991;-74
2022/04/08 09:17:33;;;;;;;49.20;26.50;;;;;;;10.70;54.91;97974.63;128470;1287;98773;-74
2022/04/08 09:20:44;;;;;;;20.40;12.20;;;;;;;10.81;54.80;97982.20;128363;1287;99161;-74
2022/04/08 09:23:47;;;;;;;35.10;21.80;;;;;;;10.85;55.31;98007.05;128473;1287;98436;-73
2022/04/08 09:26:52;;;;;;;11.50;5.30;;;;;;;10.86;56.17;98027.83;128451;1287;99530;-74
2022/04/08 09:29:57;;;;;;;13.60;9.50;;;;;;;10.55;56.70;98027.77;128415;1287;98034;-73
2022/04/08 09:33:10;;;;;;;4.80;3.40;;;;;;;10.35;57.10;98017.54;128469;1287;99095;-74
2022/04/08 09:36:12;;;;;;;22.60;17.30;;;;;;;10.29;57.21;98021.98;128385;1287;99888;-73
2022/04/08 09:39:16;;;;;;;3.90;2.20;;;;;;;10.32;56.83;98029.02;128415;1286;99211;-75
2022/04/08 09:42:19;;;;;;;2.00;1.20;;;;;;;10.30;57.13;98025.65;128434;1287;99076;-73
2022/04/08 09:45:30;;;;;;;4.20;2.30;;;;;;;10.19;57.24;98018.59;128421;1287;99185;-73
2022/04/08 09:48:33;;;;;;;3.80;3.00;;;;;;;10.04;57.60;98017.19;128463;1287;122380;-75
2022/04/08 09:51:38;;;;;;;7.70;4.00;;;;;;;10.02;57.76;98008.74;128383;1287;99280;-76
2022/04/08 09:54:44;;;;;;;8.50;5.50;;;;;;;10.03;57.72;98003.00;128575;1287;97997;-75
2022/04/08 09:57:51;;;;;;;5.10;3.80;;;;;;;10.10;58.12;98005.10;128499;1287;99245;-75
2022/04/08 10:00:54;;;;;;;7.20;4.20;;;;;;;10.17;58.01;98003.54;128443;1287;98144;-75
2022/04/08 10:03:58;;;;;;;3.90;2.70;;;;;;;10.18;58.03;98006.23;128355;1286;99096;-74
2022/04/08 10:07:02;;;;;;;4.00;2.40;;;;;;;10.29;58.35;98007.92;128400;1287;98015;-74
2022/04/08 10:10:13;;;;;;;7.10;5.50;;;;;;;10.38;57.94;98007.23;128398;1287;99011;-74
2022/04/08 10:13:37;;;;;;;2.90;2.20;;;;;;;10.41;57.87;98007.94;128452;1287;98052;-74
2022/04/08 10:16:40;;;;;;;2.70;2.30;;;;;;;10.55;57.56;98007.63;128441;1287;98001;-75
2022/04/08 10:19:43;;;;;;;7.60;4.40;;;;;;;10.88;57.15;98014.39;128397;1287;98096;-74
2022/04/08 10:22:47;;;;;;;13.40;6.50;;;;;;;11.16;56.94;98013.19;128347;1287;99193;-74
2022/04/08 10:25:59;;;;;;;9.10;4.90;;;;;;;11.42;56.02;98015.27;128354;1287;99061;-74
2022/04/08 10:29:11;;;;;;;9.30;5.40;;;;;;;11.59;54.77;98019.08;128551;1287;98476;-74
2022/04/08 10:32:15;;;;;;;39.80;14.20;;;;;;;11.37;53.03;98078.96;128617;1287;98018;-73
2022/04/08 10:35:19;;;;;;;4.10;2.40;;;;;;;10.64;54.65;98116.29;128594;1287;98758;-74
2022/04/08 10:38:23;;;;;;;8.30;3.50;;;;;;;9.92;56.13;98117.58;128439;1287;98771;-74
2022/04/08 10:41:26;;;;;;;3.90;1.80;;;;;;;9.29;57.58;98133.04;128382;1287;98047;-74
2022/04/08 10:44:34;;;;;;;5.70;2.00;;;;;;;8.83;58.58;98167.77;128357;1287;98027;-74
2022/04/08 10:47:47;;;;;;;18.00;9.20;;;;;;;8.52;60.42;98180.36;128471;1286;99198;-75
2022/04/08 10:50:50;;;;;;;24.20;9.90;;;;;;;7.96;63.58;98175.16;128558;1287;99217;-74
2022/04/08 10:54:04;;;;;;;155.30;46.60;;;;;;;7.65;61.57;98171.63;128439;1287;99211;-74
2022/04/08 10:57:07;;;;;;;19.10;13.40;;;;;;;7.70;61.29;98169.89;128189;1287;101444;-75
2022/04/08 11:00:14;;;;;;;4.30;2.60;;;;;;;7.98;61.09;98170.27;128249;1287;98688;-74
2022/04/08 11:03:17;;;;;;;2.30;1.30;;;;;;;8.27;60.71;98162.62;128382;1287;98012;-75
2022/04/08 11:06:38;;;;;;;4.50;3.10;;;;;;;8.65;60.67;98159.05;129825;1274;98060;31
2022/04/08 11:09:43;;;;;;;2.60;2.20;;;;;;;9.06;61.55;98157.23;128405;1288;99080;-75
2022/04/08 11:12:47;;;;;;;2.40;1.50;;;;;;;9.23;61.23;98164.45;128177;1290;98020;-75
2022/04/08 11:15:51;;;;;;;2.30;1.50;;;;;;;9.41;60.48;98170.73;127720;1290;98016;-75
2022/04/08 11:18:55;;;;;;;3.20;2.30;;;;;;;9.63;60.44;98173.95;127759;1290;121809;-74
2022/04/08 11:21:57;;;;;;;4.70;2.30;;;;;;;9.69;59.86;98172.64;128087;1290;99242;-74
2022/04/08 11:25:01;;;;;;;3.70;2.80;;;;;;;9.78;59.05;98171.02;128045;1290;98035;-74
2022/04/08 11:28:05;;;;;;;5.10;3.80;;;;;;;9.90;58.36;98175.04;128008;1291;98115;-75
2022/04/08 11:31:08;;;;;;;24.50;18.10;;;;;;;9.92;57.94;98171.08;127970;1290;98447;-76
2022/04/08 11:34:13;;;;;;;12.90;7.40;;;;;;;10.15;58.16;98177.79;127824;1290;98006;-75
2022/04/08 11:37:26;;;;;;;62.10;31.70;;;;;;;10.42;57.64;98168.96;128107;1290;98156;-75
2022/04/08 11:40:30;;;;;;;10.10;6.40;;;;;;;10.58;57.32;98157.89;127980;1290;99647;-75
2022/04/08 11:43:35;;;;;;;10.50;5.50;;;;;;;10.44;56.19;98164.78;127882;1290;98034;-75
2022/04/08 11:46:37;;;;;;;8.10;4.90;;;;;;;10.21;55.94;98165.77;127806;1290;98450;-75
2022/04/08 11:49:40;;;;;;;3.80;2.80;;;;;;;10.13;56.41;98167.44;127800;1290;99086;-74
2022/04/08 11:52:53;;;;;;;3.50;2.40;;;;;;;10.24;57.11;98169.52;127776;1290;99216;-75
2022/04/08 11:55:59;;;;;;;2.10;1.50;;;;;;;10.54;56.65;98175.05;127892;1290;98041;-75
2022/04/08 11:59:04;;;;;;;18.30;8.70;;;;;;;10.70;56.53;98172.84;128010;1290;98677;-75
2022/04/08 12:02:09;;;;;;;12.70;6.10;;;;;;;10.85;56.02;98184.45;127910;1290;98039;-75
2022/04/08 12:05:18;;;;;;;10.30;4.80;;;;;;;10.72;55.34;98185.40;127825;1290;98703;-76
2022/04/08 12:08:21;;;;;;;6.10;3.50;;;;;;;10.63;56.16;98178.08;128045;1290;99111;-74
2022/04/08 12:11:28;;;;;;;17.10;12.10;;;;;;;10.80;56.58;98173.00;127907;1290;122087;-73
2022/04/08 12:14:31;;;;;;;9.50;6.00;;;;;;;11.15;56.62;98171.20;127950;1290;97978;-73
2022/04/08 12:17:38;;;;;;;11.60;7.40;;;;;;;11.39;55.60;98166.63;127950;1290;98125;-73
2022/04/08 12:20:41;;;;;;;3.20;2.20;;;;;;;11.62;55.59;98164.59;128069;1290;98009;-74
2022/04/08 12:23:44;;;;;;;7.40;6.70;;;;;;;11.81;55.30;98154.47;128001;1290;204003;-74
2022/04/08 12:26:51;;;;;;;10.90;7.00;;;;;;;11.86;54.96;98153.60;127968;1290;98270;-73
2022/04/08 12:30:08;;;;;;;14.30;7.30;;;;;;;11.93;54.67;98156.27;127817;1290;99263;-73
2022/04/08 12:33:11;;;;;;;43.70;21.30;;;;;;;12.04;53.90;98149.45;127808;1289;98057;-73
2022/04/08 12:36:14;;;;;;;62.20;35.90;;;;;;;12.08;53.55;98135.58;127892;1290;98204;-74
2022/04/08 12:39:17;;;;;;;9.50;5.70;;;;;;;12.20;53.19;98136.82;127844;1289;99193;-74
2022/04/08 12:42:20;;;;;;;9.70;4.20;;;;;;;12.29;52.47;98140.05;127915;1290;98051;-74
2022/04/08 12:45:23;;;;;;;4.80;2.40;;;;;;;12.37;53.00;98147.98;127894;1290;98011;-74
2022/04/08 12:48:27;;;;;;;1.90;1.10;;;;;;;12.34;51.56;98150.92;127721;1290;98773;-74
2022/04/08 12:51:31;;;;;;;2.70;1.60;;;;;;;12.28;52.72;98154.59;127649;1290;98707;-73
2022/04/08 12:54:34;;;;;;;3.60;2.30;;;;;;;12.38;52.55;98145.41;127916;1290;99096;-73
2022/04/08 12:57:36;;;;;;;8.00;3.10;;;;;;;12.31;52.53;98144.35;127849;1290;98109;-73
2022/04/08 13:00:39;;;;;;;3.70;2.20;;;;;;;12.26;53.04;98142.05;127843;1290;99308;-73
2022/04/08 13:03:42;;;;;;;6.50;4.70;;;;;;;12.24;53.13;98127.21;127726;1290;99158;-73
2022/04/08 13:06:45;;;;;;;3.50;2.10;;;;;;;12.24;52.96;98126.59;127888;1290;98909;-74
2022/04/08 13:09:47;;;;;;;23.50;12.40;;;;;;;12.13;52.20;98121.77;127782;1290;98038;-73
2022/04/08 13:12:50;;;;;;;12.20;7.10;;;;;;;11.86;51.59;98123.30;127639;1290;97975;-75
2022/04/08 13:15:53;;;;;;;7.30;5.10;;;;;;;11.57;51.91;98135.02;127690;1290;98061;-74
2022/04/08 13:18:55;;;;;;;3.40;2.40;;;;;;;11.25;52.33;98162.35;128131;1290;98030;-74
2022/04/08 13:21:58;;;;;;;3.40;3.00;;;;;;;10.87;52.72;98143.39;128145;1290;98026;-74
2022/04/08 13:25:01;;;;;;;5.10;2.40;;;;;;;10.50;53.98;98163.63;128066;1290;112135;-74
2022/04/08 13:28:05;;;;;;;5.10;2.90;;;;;;;10.01;55.70;98210.32;127964;1290;98020;-74
2022/04/08 13:31:07;;;;;;;6.90;2.90;;;;;;;9.56;57.53;98232.29;127774;1290;112346;-74
2022/04/08 13:34:10;;;;;;;2.60;1.50;;;;;;;8.91;61.29;98282.36;127785;1290;98207;-73
2022/04/08 13:37:13;;;;;;;3.20;2.10;;;;;;;7.90;64.60;98301.84;127843;1290;98106;-76
2022/04/08 13:40:15;;;;;;;6.10;5.00;;;;;;;7.24;65.04;98299.64;127918;1290;98103;-74
2022/04/08 13:43:18;;;;;;;8.80;6.40;;;;;;;6.94;65.18;98295.33;128012;1290;98045;-75
2022/04/08 13:46:21;;;;;;;12.50;10.00;;;;;;;6.85;64.86;98297.23;127921;1290;98791;-74
2022/04/08 13:49:23;;;;;;;8.20;5.60;;;;;;;6.71;65.92;98287.38;127718;1290;99194;-74
2022/04/08 13:52:27;;;;;;;11.80;5.30;;;;;;;6.82;64.26;98253.23;128017;1290;99315;-75
2022/04/08 13:55:30;;;;;;;9.50;4.10;;;;;;;7.17;63.63;98248.45;127983;1290;108795;-74
2022/04/08 13:58:33;;;;;;;19.50;9.10;;;;;;;7.61;63.12;98237.96;127909;1290;98690;-75
2022/04/08 14:01:36;;;;;;;76.80;26.20;;;;;;;8.03;63.92;98240.10;127924;1290;99196;-75
2022/04/08 14:04:39;;;;;;;25.00;10.30;;;;;;;8.18;63.64;98234.09;128158;1290;108963;-75
2022/04/08 14:07:42;;;;;;;40.00;14.90;;;;;;;8.15;63.27;98238.18;128171;1289;98153;-76
2022/04/08 14:10:45;;;;;;;7.10;2.80;;;;;;;8.33;63.03;98238.41;128158;1290;98279;-74